Time;durP1;ratioP1;P1;durP2;ratioP2;P2;SDS_P1;SDS_P2;PMS_P1;PMS_P2;Temp;Humidity;BMP_temperature;BMP_pressure;BME280_temperature;BME280_humidity;BME280_pressure;Samples;Min_cycle;Max_cycle;Signal;HPM_P1;HPM_P2
2021/12/18 00:01:58;;;;;;;2.10;1.92;;;4.60;99.90;;;;;;7387449;19;20313;-81
2021/12/18 00:04:24;;;;;;;2.40;1.90;;;4.60;99.90;;;;;;7383870;19;21119;-80
2021/12/18 00:06:49;;;;;;;2.00;1.80;;;4.40;99.90;;;;;;7387611;19;20308;-80
2021/12/18 00:09:15;;;;;;;1.83;1.53;;;4.50;99.90;;;;;;7384871;19;20371;-79
2021/12/18 00:11:41;;;;;;;1.83;1.63;;;4.50;99.90;;;;;;7385947;19;20353;-80
2021/12/18 00:14:06;;;;;;;2.03;1.80;;;4.60;99.90;;;;;;7386412;19;20315;-80
2021/12/18 00:16:32;;;;;;;2.75;1.85;;;4.50;99.90;;;;;;7386197;19;20463;-77
2021/12/18 00:18:58;;;;;;;1.73;1.63;;;4.50;99.90;;;;;;7388439;19;20346;-80
2021/12/18 00:21:25;;;;;;;2.40;1.48;;;4.50;99.90;;;;;;7387045;19;20335;-80
2021/12/18 00:23:50;;;;;;;5.15;1.67;;;4.50;99.90;;;;;;7383897;19;20308;-79
2021/12/18 00:26:16;;;;;;;1.95;1.80;;;4.60;99.90;;;;;;7386678;19;20301;-79
2021/12/18 00:28:42;;;;;;;1.40;1.30;;;4.50;99.90;;;;;;7387630;19;20329;-82
2021/12/18 00:31:08;;;;;;;2.40;1.50;;;4.60;99.90;;;;;;7388280;19;21180;-80
2021/12/18 00:33:33;;;;;;;1.33;1.23;;;4.60;99.90;;;;;;7389645;19;20320;-80
2021/12/18 00:35:59;;;;;;;5.27;1.50;;;4.70;99.90;;;;;;7386318;19;20341;-82
2021/12/18 00:38:29;;;;;;;2.30;1.38;;;4.80;99.90;;;;;;7387158;19;20342;-81
2021/12/18 00:41:14;;;;;;;1.45;1.35;;;4.80;99.90;;;;;;7387086;19;20384;-81
2021/12/18 00:44:01;;;;;;;1.43;1.33;;;4.90;99.90;;;;;;7287781;19;2009630;-82
2021/12/18 00:46:26;;;;;;;1.83;1.20;;;5.00;99.90;;;;;;7386432;19;20861;-80
2021/12/18 00:48:51;;;;;;;1.80;1.40;;;5.00;99.90;;;;;;7383600;19;20412;-79
2021/12/18 00:51:17;;;;;;;2.03;1.30;;;5.00;99.90;;;;;;7387597;19;20301;-80
2021/12/18 00:53:43;;;;;;;2.13;1.37;;;5.00;99.90;;;;;;7385883;19;20368;-83
2021/12/18 00:56:09;;;;;;;1.90;1.40;;;5.00;99.90;;;;;;7372727;19;20337;-82
2021/12/18 00:58:35;;;;;;;1.40;1.30;;;5.00;99.90;;;;;;7389305;19;20313;-80
2021/12/18 01:01:06;;;;;;;2.72;1.33;;;5.00;99.90;;;;;;7388526;19;20312;-79
2021/12/18 01:03:32;;;;;;;1.52;1.42;;;5.00;99.90;;;;;;7386807;19;20349;-80
2021/12/18 01:05:57;;;;;;;1.90;1.60;;;5.00;99.90;;;;;;7383726;19;20388;-81
2021/12/18 01:08:23;;;;;;;3.40;2.10;;;4.80;99.90;;;;;;7384897;19;20309;-80
2021/12/18 01:13:28;;;;;;;2.00;1.73;;;4.80;99.90;;;;;;7387709;19;20321;-79
2021/12/18 01:15:57;;;;;;;1.70;1.48;;;4.80;99.90;;;;;;7384588;19;20320;-80
2021/12/18 01:23:51;;;;;;;2.97;1.55;;;4.70;99.90;;;;;;7383468;19;20341;-79
2021/12/18 01:26:18;;;;;;;2.60;1.70;;;4.70;99.90;;;;;;7384792;19;20339;-80
2021/12/18 01:28:44;;;;;;;2.28;1.77;;;4.70;99.90;;;;;;7387279;19;20312;-78
2021/12/18 01:31:09;;;;;;;1.77;1.38;;;4.60;99.90;;;;;;7387818;19;20308;-81
2021/12/18 01:33:36;;;;;;;1.53;1.43;;;4.60;99.90;;;;;;7385941;19;20327;-88
2021/12/18 01:36:01;;;;;;;2.83;1.80;;;4.70;99.90;;;;;;7387485;19;20309;-80
2021/12/18 01:38:29;;;;;;;1.73;1.58;;;4.60;99.90;;;;;;7384321;19;20920;-80
2021/12/18 01:40:55;;;;;;;1.90;1.80;;;4.60;99.90;;;;;;7384164;19;20329;-80
2021/12/18 01:46:05;;;;;;;3.72;1.80;;;4.60;99.90;;;;;;7381981;19;20355;-80
2021/12/18 01:51:23;;;;;;;2.35;1.65;;;4.60;99.90;;;;;;7284419;19;2004621;-83
2021/12/18 01:53:51;;;;;;;2.22;1.75;;;4.60;99.90;;;;;;7382398;19;21232;-83
2021/12/18 01:56:17;;;;;;;2.58;1.85;;;4.60;99.90;;;;;;7383863;19;20344;-80
2021/12/18 01:58:44;;;;;;;2.90;1.70;;;4.60;99.90;;;;;;7388329;19;20339;-80
2021/12/18 02:01:10;;;;;;;2.13;1.92;;;4.60;99.90;;;;;;7365094;19;20320;-79
2021/12/18 02:03:35;;;;;;;1.80;1.70;;;4.60;99.90;;;;;;7382097;19;20352;-80
2021/12/18 02:06:01;;;;;;;1.77;1.67;;;4.60;99.90;;;;;;7384937;19;20328;-80
2021/12/18 02:08:27;;;;;;;2.55;1.73;;;4.50;99.90;;;;;;7383687;19;20392;-81
2021/12/18 02:10:59;;;;;;;1.98;1.80;;;4.50;99.90;;;;;;7381724;19;20304;-79
2021/12/18 02:13:39;;;;;;;2.45;1.92;;;4.50;99.90;;;;;;7388704;19;20396;-84
2021/12/18 02:21:34;;;;;;;3.08;2.08;;;4.50;99.90;;;;;;7389050;19;20321;-80
2021/12/18 02:24:01;;;;;;;4.27;2.37;;;4.50;99.90;;;;;;7386714;19;20787;-79
2021/12/18 02:26:26;;;;;;;4.47;1.80;;;4.50;99.90;;;;;;7386513;19;20316;-79
2021/12/18 02:28:54;;;;;;;3.67;2.77;;;4.50;99.90;;;;;;7385674;19;20432;-79
2021/12/18 02:31:20;;;;;;;2.78;2.58;;;4.50;99.90;;;;;;7383483;19;20671;-80
2021/12/18 02:33:46;;;;;;;2.63;2.38;;;4.50;99.90;;;;;;7377755;19;20309;-79
2021/12/18 02:36:20;;;;;;;3.05;2.72;;;4.50;99.90;;;;;;7384569;19;20408;-80
2021/12/18 02:39:03;;;;;;;3.30;2.37;;;4.50;99.90;;;;;;7381651;19;20454;-80
2021/12/18 02:41:39;;;;;;;2.63;2.43;;;4.50;99.90;;;;;;7384423;19;20329;-78
2021/12/18 02:44:07;;;;;;;2.65;2.38;;;4.60;99.90;;;;;;7384654;19;20321;-78
2021/12/18 02:46:32;;;;;;;2.83;2.63;;;4.60;99.90;;;;;;7382926;19;20738;-78
2021/12/18 02:48:58;;;;;;;3.20;2.50;;;4.70;99.90;;;;;;7382854;19;20309;-81
2021/12/18 02:51:27;;;;;;;3.10;2.80;;;4.60;99.90;;;;;;7379460;19;22086;-78
2021/12/18 02:53:53;;;;;;;4.30;2.57;;;4.70;99.90;;;;;;7380389;19;20309;-79
2021/12/18 02:56:23;;;;;;;5.97;2.88;;;4.60;99.90;;;;;;7386071;19;20312;-80
2021/12/18 02:58:50;;;;;;;2.88;2.58;;;4.60;99.90;;;;;;7384978;19;20904;-83
2021/12/18 03:01:20;;;;;;;4.43;3.20;;;4.60;99.90;;;;;;7382774;19;20348;-79
2021/12/18 03:03:47;;;;;;;3.40;2.70;;;4.60;99.90;;;;;;7382240;19;20321;-78
2021/12/18 03:27:19;;;;;;;2.70;2.13;;;4.50;99.90;;;;;;7390305;19;20325;-81
2021/12/18 03:29:44;;;;;;;2.40;2.20;;;4.50;99.90;;;;;;7390162;19;20362;-82
2021/12/18 03:32:10;;;;;;;2.20;2.00;;;4.60;99.90;;;;;;7391563;19;20310;-81
2021/12/18 03:34:36;;;;;;;3.80;2.72;;;4.50;99.90;;;;;;7389882;19;20904;-80
2021/12/18 03:37:02;;;;;;;5.50;2.40;;;4.60;99.90;;;;;;7388273;19;20340;-80
2021/12/18 03:39:28;;;;;;;2.47;2.17;;;4.60;99.90;;;;;;7386533;19;20358;-79
2021/12/18 03:41:53;;;;;;;1.77;1.67;;;4.60;99.90;;;;;;7390688;19;20337;-78
2021/12/18 03:44:20;;;;;;;2.20;2.08;;;4.60;99.90;;;;;;7391755;19;20308;-82
2021/12/18 03:46:45;;;;;;;2.42;2.22;;;4.70;99.90;;;;;;7393021;19;20357;-80
2021/12/18 03:49:11;;;;;;;3.47;2.23;;;4.70;99.90;;;;;;7391887;19;20683;-79
2021/12/18 03:51:37;;;;;;;2.40;2.15;;;4.70;99.90;;;;;;7394236;19;20337;-80
2021/12/18 03:54:04;;;;;;;4.30;2.40;;;4.70;99.90;;;;;;7390991;19;20324;-80
2021/12/18 03:56:29;;;;;;;6.23;2.80;;;4.70;99.90;;;;;;7390045;19;20383;-79
2021/12/18 03:58:55;;;;;;;4.47;2.38;;;4.70;99.90;;;;;;7389620;19;20346;-79
2021/12/18 04:01:21;;;;;;;3.10;2.50;;;4.70;99.90;;;;;;7389600;19;20301;-82
2021/12/18 04:03:46;;;;;;;3.27;2.37;;;4.60;99.90;;;;;;7388586;19;20902;-84
2021/12/18 04:06:12;;;;;;;6.68;3.03;;;4.60;99.90;;;;;;7373500;19;20906;-79
2021/12/18 04:08:38;;;;;;;3.27;2.50;;;4.60;99.90;;;;;;7391510;19;20867;-79
2021/12/18 04:11:03;;;;;;;2.70;2.50;;;4.50;99.90;;;;;;7384289;19;20313;-80
2021/12/18 04:13:30;;;;;;;2.92;2.72;;;4.50;99.90;;;;;;7389108;19;20325;-82
2021/12/18 04:15:56;;;;;;;2.97;2.58;;;4.50;99.90;;;;;;7388702;19;20322;-79
2021/12/18 04:18:21;;;;;;;4.30;2.80;;;4.60;99.90;;;;;;7390738;19;20317;-80
2021/12/18 04:20:47;;;;;;;2.80;2.60;;;4.60;99.90;;;;;;7386604;19;20345;-81
2021/12/18 04:23:13;;;;;;;2.83;2.28;;;4.60;99.90;;;;;;7384957;19;20339;-79
2021/12/18 04:25:40;;;;;;;3.87;2.80;;;4.60;99.90;;;;;;7385819;19;20996;-80
2021/12/18 04:28:05;;;;;;;4.13;2.58;;;4.50;99.90;;;;;;7389280;19;20324;-82
2021/12/18 04:30:31;;;;;;;3.20;2.90;;;4.50;99.90;;;;;;7386128;19;20320;-79
2021/12/18 04:32:57;;;;;;;4.10;2.50;;;4.50;99.90;;;;;;7386542;19;20289;-82
2021/12/18 04:35:22;;;;;;;3.17;2.85;;;4.50;99.90;;;;;;7385417;19;20323;-80
2021/12/18 04:37:48;;;;;;;4.30;3.42;;;4.50;99.90;;;;;;7386149;19;20377;-79
2021/12/18 04:40:14;;;;;;;2.80;2.50;;;4.50;99.90;;;;;;7380898;19;20329;-80
2021/12/18 04:42:39;;;;;;;3.03;2.30;;;4.60;99.90;;;;;;7387933;19;20397;-82
2021/12/18 04:45:05;;;;;;;2.40;2.20;;;4.50;99.90;;;;;;7378990;19;20309;-79
2021/12/18 04:47:31;;;;;;;3.03;2.58;;;4.50;99.90;;;;;;7386968;19;20336;-79
2021/12/18 04:49:57;;;;;;;2.42;2.20;;;4.50;99.90;;;;;;7384878;19;20662;-79
2021/12/18 04:52:23;;;;;;;2.77;2.57;;;4.50;99.90;;;;;;7386466;19;20309;-80
2021/12/18 04:54:49;;;;;;;2.90;2.70;;;4.50;99.90;;;;;;7385888;19;20932;-79
2021/12/18 04:57:15;;;;;;;3.00;2.70;;;4.50;99.90;;;;;;7387478;19;20340;-80
2021/12/18 04:59:44;;;;;;;3.40;2.57;;;4.50;99.90;;;;;;7383284;19;22616;-80
2021/12/18 05:02:15;;;;;;;4.30;2.63;;;4.50;99.90;;;;;;7387089;19;20309;-80
2021/12/18 05:04:41;;;;;;;2.60;2.40;;;4.40;99.90;;;;;;7381909;19;20332;-82
2021/12/18 05:07:10;;;;;;;6.28;2.80;;;4.40;99.90;;;;;;7386465;19;20327;-80
2021/12/18 05:09:35;;;;;;;3.83;2.83;;;4.50;99.90;;;;;;7384022;19;20687;-79
2021/12/18 05:12:01;;;;;;;3.20;2.90;;;4.30;99.90;;;;;;7387339;19;20307;-80
2021/12/18 05:14:27;;;;;;;3.03;2.72;;;4.30;99.90;;;;;;7391137;19;20347;-82
2021/12/18 05:16:52;;;;;;;3.10;2.80;;;4.30;99.90;;;;;;7394809;19;21226;-79
2021/12/18 05:19:19;;;;;;;3.50;2.53;;;4.30;99.90;;;;;;7392663;19;20317;-78
2021/12/18 05:21:44;;;;;;;3.47;2.35;;;4.40;99.90;;;;;;7391489;19;20329;-80
2021/12/18 05:24:10;;;;;;;4.60;2.60;;;4.30;99.90;;;;;;7385507;19;20312;-80
2021/12/18 05:26:36;;;;;;;2.47;2.23;;;4.30;99.90;;;;;;7392025;19;20324;-81
2021/12/18 05:29:01;;;;;;;2.20;2.00;;;4.30;99.90;;;;;;7390421;19;20320;-80
2021/12/18 05:31:27;;;;;;;3.37;2.20;;;4.30;99.90;;;;;;7370278;19;20362;-80
2021/12/18 05:33:58;;;;;;;1.98;1.85;;;4.20;99.90;;;;;;7386512;19;20325;-79
2021/12/18 05:36:40;;;;;;;1.70;1.60;;;4.20;99.90;;;;;;7386624;19;20868;-80
2021/12/18 05:39:08;;;;;;;1.63;1.53;;;4.20;99.90;;;;;;7282935;19;2008801;-79
2021/12/18 05:41:33;;;;;;;1.70;1.60;;;4.30;99.90;;;;;;7383479;19;20373;-81
2021/12/18 05:43:59;;;;;;;1.70;1.60;;;4.30;99.90;;;;;;7383983;19;20342;-80
2021/12/18 05:46:25;;;;;;;1.73;1.63;;;4.30;99.90;;;;;;7386721;19;20308;-79
2021/12/18 05:48:50;;;;;;;3.20;2.07;;;4.40;99.90;;;;;;7385523;19;20301;-82
2021/12/18 05:51:16;;;;;;;1.90;1.80;;;4.30;99.90;;;;;;7386549;19;20313;-79
2021/12/18 05:53:42;;;;;;;1.98;1.77;;;4.30;99.90;;;;;;7385684;19;21016;-80
2021/12/18 05:56:07;;;;;;;1.77;1.67;;;4.30;99.90;;;;;;7381288;19;20737;-79
2021/12/18 05:58:33;;;;;;;1.60;1.50;;;4.30;99.90;;;;;;7385987;19;20304;-80
2021/12/18 06:00:59;;;;;;;1.50;1.40;;;4.30;99.90;;;;;;7384675;19;20331;-79
2021/12/18 06:03:25;;;;;;;1.65;1.33;;;4.30;99.90;;;;;;7383981;19;20305;-80
2021/12/18 06:05:50;;;;;;;1.35;1.25;;;4.20;99.90;;;;;;7385631;19;20910;-80
2021/12/18 06:08:16;;;;;;;1.60;1.37;;;4.20;99.90;;;;;;7385322;19;20667;-79
2021/12/18 06:10:42;;;;;;;1.40;1.30;;;4.20;99.90;;;;;;7383387;19;20320;-79
2021/12/18 06:13:07;;;;;;;1.10;1.10;;;4.20;99.90;;;;;;7385820;19;20347;-80
2021/12/18 06:15:33;;;;;;;1.70;1.30;;;4.20;99.90;;;;;;7385343;19;20709;-80
2021/12/18 06:17:59;;;;;;;1.50;1.40;;;4.20;99.90;;;;;;7386482;19;20659;-78
2021/12/18 06:20:25;;;;;;;1.00;1.00;;;4.20;99.90;;;;;;7379688;19;20309;-78
2021/12/18 06:22:51;;;;;;;1.35;1.23;;;4.20;99.90;;;;;;7380722;19;20374;-79
2021/12/18 06:25:17;;;;;;;1.20;1.20;;;4.20;99.90;;;;;;7382621;19;20313;-78
2021/12/18 06:27:42;;;;;;;1.30;1.20;;;4.20;99.90;;;;;;7386175;19;20899;-80
2021/12/18 06:30:10;;;;;;;1.17;1.08;;;4.20;99.90;;;;;;7387360;19;20328;-81
2021/12/18 06:32:35;;;;;;;1.80;0.95;;;4.30;99.90;;;;;;7387541;19;20316;-78
2021/12/18 06:35:01;;;;;;;2.00;1.40;;;4.30;99.90;;;;;;7384271;19;20350;-78
2021/12/18 06:37:27;;;;;;;1.40;1.30;;;4.30;99.90;;;;;;7385341;19;20301;-79
2021/12/18 06:39:53;;;;;;;1.50;1.40;;;4.30;99.90;;;;;;7390052;19;20893;-81
2021/12/18 06:42:19;;;;;;;1.25;1.25;;;4.20;99.90;;;;;;7393802;19;20336;-79
2021/12/18 06:44:44;;;;;;;1.58;1.48;;;4.30;99.90;;;;;;7387734;19;20772;-79
2021/12/18 06:47:10;;;;;;;1.20;1.17;;;4.20;99.90;;;;;;7396729;19;20300;-81
2021/12/18 06:49:36;;;;;;;1.67;1.33;;;4.20;99.90;;;;;;7398648;19;20300;-78
2021/12/18 06:52:02;;;;;;;1.43;1.33;;;4.30;99.90;;;;;;7392511;19;20309;-79
2021/12/18 06:54:27;;;;;;;2.67;2.38;;;4.20;99.90;;;;;;7389729;19;20343;-82
2021/12/18 06:56:53;;;;;;;1.90;1.80;;;4.20;99.90;;;;;;7376091;19;20296;-79
2021/12/18 06:59:19;;;;;;;1.17;1.17;;;4.20;99.90;;;;;;7388839;19;20348;-80
2021/12/18 07:01:45;;;;;;;1.10;1.10;;;4.20;99.90;;;;;;7389442;19;20882;-79
2021/12/18 07:04:11;;;;;;;0.97;0.97;;;4.20;99.90;;;;;;7391575;19;20396;-79
2021/12/18 07:06:36;;;;;;;1.40;1.30;;;4.20;99.90;;;;;;7390932;19;20355;-80
2021/12/18 07:09:03;;;;;;;1.57;1.47;;;4.20;99.90;;;;;;7383467;19;22710;-80
2021/12/18 07:11:29;;;;;;;2.58;2.20;;;4.30;99.90;;;;;;7393241;19;20391;-80
2021/12/18 07:13:56;;;;;;;2.08;1.85;;;4.30;99.90;;;;;;7390218;19;20391;-83
2021/12/18 07:16:22;;;;;;;1.90;1.80;;;4.30;99.90;;;;;;7398279;19;20334;-82
2021/12/18 07:18:51;;;;;;;1.40;1.30;;;4.30;99.90;;;;;;7385169;19;20710;-78
2021/12/18 07:21:17;;;;;;;1.43;1.33;;;4.30;99.90;;;;;;7388727;19;20336;-79
2021/12/18 07:23:42;;;;;;;1.50;1.40;;;4.30;99.90;;;;;;7384799;19;20468;-87
2021/12/18 07:26:08;;;;;;;1.50;1.40;;;4.30;99.90;;;;;;7389736;19;20918;-81
2021/12/18 07:28:34;;;;;;;1.97;1.77;;;4.30;99.90;;;;;;7390936;19;20332;-80
2021/12/18 07:30:59;;;;;;;1.80;1.60;;;4.30;99.90;;;;;;7391547;19;20316;-80
2021/12/18 07:33:25;;;;;;;1.80;1.65;;;4.30;99.90;;;;;;7391351;19;20334;-79
2021/12/18 07:35:51;;;;;;;1.70;1.60;;;4.30;99.90;;;;;;7390583;19;20336;-79
2021/12/18 07:38:16;;;;;;;1.80;1.70;;;4.30;99.90;;;;;;7392277;19;20349;-79
2021/12/18 07:40:42;;;;;;;2.23;2.03;;;4.30;99.90;;;;;;7390638;19;20883;-78
2021/12/18 07:43:08;;;;;;;2.28;2.08;;;4.40;99.90;;;;;;7392876;19;20345;-80
2021/12/18 07:45:35;;;;;;;2.60;2.40;;;4.40;99.90;;;;;;7391701;19;20328;-78
2021/12/18 07:48:02;;;;;;;3.20;2.70;;;4.40;99.90;;;;;;7396727;19;20305;-79
2021/12/18 07:50:28;;;;;;;1.80;1.70;;;4.50;99.90;;;;;;7391006;19;20371;-78
2021/12/18 07:52:54;;;;;;;1.80;1.70;;;4.50;99.90;;;;;;7388750;19;20456;-79
2021/12/18 07:55:20;;;;;;;1.60;1.50;;;4.50;99.90;;;;;;7386015;19;20733;-81
2021/12/18 07:57:47;;;;;;;4.03;2.10;;;4.50;99.90;;;;;;7392659;19;20293;-82
2021/12/18 08:00:13;;;;;;;2.50;2.30;;;4.60;99.90;;;;;;7393933;19;20452;-81
2021/12/18 08:02:39;;;;;;;2.30;2.10;;;4.60;99.90;;;;;;7392479;19;20328;-83
2021/12/18 08:05:05;;;;;;;2.22;2.00;;;4.60;99.90;;;;;;7389501;19;20311;-80
2021/12/18 08:07:31;;;;;;;2.40;2.20;;;4.60;99.90;;;;;;7395422;19;20344;-84
2021/12/18 08:09:56;;;;;;;2.53;2.20;;;4.70;99.90;;;;;;7393477;19;20723;-84
2021/12/18 08:12:24;;;;;;;2.38;2.17;;;4.70;99.90;;;;;;7395521;19;20316;-80
2021/12/18 08:14:50;;;;;;;2.60;2.30;;;4.70;99.90;;;;;;7391998;19;20384;-82
2021/12/18 08:17:16;;;;;;;2.25;2.05;;;4.70;99.90;;;;;;7389908;19;20610;-79
2021/12/18 08:19:41;;;;;;;2.67;2.47;;;4.80;99.90;;;;;;7389815;19;20712;-80
2021/12/18 08:22:07;;;;;;;2.42;2.28;;;4.80;99.90;;;;;;7391433;19;20330;-81
2021/12/18 08:24:33;;;;;;;2.10;2.00;;;4.80;99.90;;;;;;7370139;19;20860;-80
2021/12/18 08:26:58;;;;;;;2.92;2.50;;;4.80;99.90;;;;;;7391721;19;20757;-80
2021/12/18 08:29:25;;;;;;;2.08;1.95;;;4.80;99.90;;;;;;7372669;19;20907;-80
2021/12/18 08:31:54;;;;;;;2.35;2.15;;;4.80;99.90;;;;;;7393043;19;20304;-80
2021/12/18 08:34:21;;;;;;;1.90;1.80;;;4.80;99.90;;;;;;7392768;19;20450;-82
2021/12/18 08:36:47;;;;;;;3.27;2.97;;;4.90;99.90;;;;;;7394012;19;20315;-79
2021/12/18 08:39:13;;;;;;;2.20;2.07;;;4.90;99.90;;;;;;7341889;19;20309;-81
2021/12/18 08:41:42;;;;;;;2.03;1.83;;;4.90;99.90;;;;;;7390138;19;20348;-78
2021/12/18 08:44:08;;;;;;;1.70;1.60;;;4.90;99.90;;;;;;7386549;19;20323;-80
2021/12/18 08:46:34;;;;;;;3.03;2.03;;;5.00;99.90;;;;;;7390036;19;20866;-77
2021/12/18 08:49:04;;;;;;;1.95;1.85;;;5.00;99.90;;;;;;7407545;19;20697;-83
2021/12/18 08:51:36;;;;;;;2.28;1.92;;;5.00;99.90;;;;;;7407705;19;20350;-89
2021/12/18 08:54:04;;;;;;;2.15;1.95;;;5.00;99.90;;;;;;7415431;19;20437;-84
2021/12/18 08:56:37;;;;;;;1.80;1.70;;;5.00;99.90;;;;;;7420903;19;20308;-84
2021/12/18 08:59:03;;;;;;;2.00;1.70;;;5.00;99.90;;;;;;7395466;19;20332;-82
2021/12/18 09:01:29;;;;;;;1.67;1.58;;;5.10;99.90;;;;;;7415250;19;20329;-89
2021/12/18 09:37:49;;;;;;;1.67;1.57;;;5.30;99.90;;;;;;7414886;19;20325;-83
2021/12/18 09:40:17;;;;;;;1.90;1.63;;;5.40;99.90;;;;;;7406426;19;20321;-80
2021/12/18 09:42:43;;;;;;;2.10;1.90;;;5.20;99.90;;;;;;7403545;19;20372;-80
2021/12/18 09:45:09;;;;;;;1.50;1.40;;;5.30;99.90;;;;;;7403654;19;20308;-80
2021/12/18 09:47:34;;;;;;;5.53;3.88;;;5.20;99.90;;;;;;7413646;19;20335;-85
2021/12/18 09:50:01;;;;;;;1.80;1.70;;;5.30;99.90;;;;;;7407811;19;20325;-86
2021/12/18 09:52:27;;;;;;;2.05;1.88;;;5.30;99.90;;;;;;7404703;19;20370;-85
2021/12/18 09:54:57;;;;;;;2.00;1.80;;;5.30;99.90;;;;;;7405232;19;20349;-85
2021/12/18 09:57:23;;;;;;;3.53;1.60;;;5.30;99.90;;;;;;7372133;19;20348;-85
2021/12/18 09:59:48;;;;;;;2.00;1.58;;;5.30;99.90;;;;;;7412738;19;20352;-89
2021/12/18 10:02:14;;;;;;;2.00;1.80;;;5.40;99.90;;;;;;7413910;19;20337;-86
2021/12/18 10:04:40;;;;;;;1.60;1.50;;;5.40;99.90;;;;;;7411363;19;20352;-87
2021/12/18 10:07:17;;;;;;;1.87;1.77;;;5.60;99.90;;;;;;7413829;19;20329;-82
2021/12/18 10:09:43;;;;;;;1.90;1.80;;;5.40;99.90;;;;;;7405815;19;20373;-82
2021/12/18 10:12:15;;;;;;;1.83;1.73;;;5.30;99.90;;;;;;7409541;19;20328;-83
2021/12/18 10:14:47;;;;;;;1.83;1.73;;;5.30;99.90;;;;;;7403820;19;20376;-87
2021/12/18 10:17:26;;;;;;;2.33;1.95;;;5.40;99.90;;;;;;7404868;19;20349;-82
2021/12/18 10:19:53;;;;;;;2.05;1.52;;;5.40;99.90;;;;;;7402390;19;20334;-84
2021/12/18 10:22:19;;;;;;;2.08;1.88;;;5.30;99.90;;;;;;7386271;19;20318;-82
2021/12/18 10:24:46;;;;;;;2.03;1.83;;;5.40;99.90;;;;;;7406063;19;20349;-84
2021/12/18 10:27:19;;;;;;;2.27;2.00;;;5.40;99.90;;;;;;7411914;19;20324;-84
2021/12/18 10:29:45;;;;;;;2.05;1.95;;;5.40;99.90;;;;;;7387848;19;20301;-84
2021/12/18 10:32:19;;;;;;;2.22;2.03;;;5.40;99.90;;;;;;7415439;19;20800;-87
2021/12/18 10:34:58;;;;;;;2.20;2.10;;;5.40;99.90;;;;;;7312942;19;2004434;-84
2021/12/18 10:37:25;;;;;;;2.42;2.22;;;5.50;99.90;;;;;;7312752;19;2004355;-87
2021/12/18 10:39:54;;;;;;;2.67;2.47;;;5.50;99.90;;;;;;7413029;19;20352;-82
2021/12/18 10:42:39;;;;;;;1.92;1.83;;;5.60;99.90;;;;;;7414172;19;21042;-87
2021/12/18 10:45:13;;;;;;;2.10;2.00;;;5.50;99.90;;;;;;7410958;19;20336;-90
2021/12/18 10:48:00;;;;;;;2.50;2.30;;;5.50;99.90;;;;;;7413363;19;20397;-86
2021/12/18 10:50:51;;;;;;;2.45;2.25;;;5.50;99.90;;;;;;7412828;19;20308;-85
2021/12/18 10:53:22;;;;;;;2.58;2.10;;;5.60;99.90;;;;;;7311938;19;2004356;-84
2021/12/18 10:55:52;;;;;;;3.72;3.30;;;5.60;99.90;;;;;;7414770;19;20317;-89
2021/12/18 10:58:35;;;;;;;3.92;3.22;;;5.60;99.90;;;;;;7413857;19;20317;-86
2021/12/18 11:01:13;;;;;;;2.80;2.60;;;5.60;99.90;;;;;;7309769;19;2012142;-88
2021/12/18 11:03:56;;;;;;;3.55;2.45;;;5.60;99.90;;;;;;7310587;19;2004340;-85
2021/12/18 11:06:27;;;;;;;2.80;2.50;;;5.60;99.90;;;;;;7287520;19;2004469;-87
2021/12/18 11:09:00;;;;;;;2.58;2.25;;;5.60;99.90;;;;;;7413124;19;20306;-89
2021/12/18 11:14:09;;;;;;;2.40;2.20;;;5.60;99.90;;;;;;7368312;19;20751;-87
2021/12/18 11:16:36;;;;;;;2.42;2.22;;;5.60;99.90;;;;;;7387425;19;20425;-86
2021/12/18 11:19:13;;;;;;;2.90;2.70;;;5.60;99.90;;;;;;7372139;19;20320;-84
2021/12/18 11:21:50;;;;;;;2.37;2.17;;;5.60;99.90;;;;;;7406908;19;20365;-86
2021/12/18 11:24:16;;;;;;;2.50;2.30;;;5.60;99.90;;;;;;7410571;19;20321;-86
2021/12/18 11:27:06;;;;;;;2.20;2.00;;;5.50;99.90;;;;;;7413852;19;20336;-89
2021/12/18 11:29:40;;;;;;;1.92;1.83;;;5.60;99.90;;;;;;7308328;19;2004360;-84
2021/12/18 11:32:09;;;;;;;2.28;2.08;;;5.50;99.90;;;;;;7398854;19;20312;-81
2021/12/18 11:34:36;;;;;;;2.13;1.98;;;5.50;99.90;;;;;;7421119;19;20348;-88
2021/12/18 11:37:02;;;;;;;4.18;3.15;;;5.50;99.90;;;;;;7418165;19;20332;-87
2021/12/18 11:39:29;;;;;;;2.20;2.00;;;5.60;99.90;;;;;;7416386;19;20348;-85
2021/12/18 11:41:55;;;;;;;1.80;1.70;;;5.60;99.90;;;;;;7410284;19;20340;-84
2021/12/18 11:44:34;;;;;;;1.80;1.70;;;5.60;99.90;;;;;;7413989;19;20776;-82
2021/12/18 11:47:36;;;;;;;2.20;2.00;;;5.60;99.90;;;;;;7407592;19;20340;-82
2021/12/18 11:50:27;;;;;;;5.50;3.95;;;5.60;99.90;;;;;;7310175;19;2004427;-83
2021/12/18 11:53:13;;;;;;;2.25;2.05;;;5.60;99.90;;;;;;7419583;19;20308;-82
2021/12/18 11:55:52;;;;;;;2.63;2.42;;;5.70;99.90;;;;;;7319841;19;2004455;-84
2021/12/18 11:58:21;;;;;;;3.08;2.58;;;5.60;99.90;;;;;;7308066;19;2004258;-82
2021/12/18 12:01:48;;;;;;;2.45;2.25;;;5.60;99.90;;;;;;7415834;19;20329;-82
2021/12/18 12:14:28;;;;;;;1.77;1.60;;;5.50;99.90;;;;;;7404815;19;20372;-79
2021/12/18 12:17:59;;;;;;;1.70;1.60;;;5.50;99.90;;;;;;7283545;19;2004556;-80
2021/12/18 12:24:54;;;;;;;1.70;1.60;;;5.50;99.90;;;;;;7418591;19;20356;-80
2021/12/18 12:32:20;;;;;;;1.95;1.85;;;5.40;99.90;;;;;;7424564;19;20339;-79
2021/12/18 12:35:19;;;;;;;2.10;1.90;;;5.40;99.90;;;;;;7398943;19;20428;-81
2021/12/18 12:37:50;;;;;;;1.75;1.65;;;5.50;99.90;;;;;;7397858;19;20316;-83
2021/12/18 12:40:34;;;;;;;1.80;1.70;;;5.40;99.90;;;;;;7394008;19;20317;-80
2021/12/18 12:43:25;;;;;;;2.20;1.73;;;5.40;99.90;;;;;;7293382;19;2004430;-79
2021/12/18 12:45:56;;;;;;;2.05;1.70;;;5.40;99.90;;;;;;7400469;19;20743;-81
2021/12/18 12:48:23;;;;;;;1.63;1.52;;;5.40;99.90;;;;;;7395817;19;20321;-81
2021/12/18 12:50:57;;;;;;;1.80;1.65;;;5.50;99.90;;;;;;7397420;19;20319;-81
2021/12/18 12:53:41;;;;;;;2.47;1.80;;;5.40;99.90;;;;;;7300069;19;2004774;-81
2021/12/18 12:56:29;;;;;;;2.50;2.15;;;5.40;99.90;;;;;;7194285;19;2007377;-81
2021/12/18 12:59:24;;;;;;;3.27;2.97;;;5.40;99.90;;;;;;7398096;19;20305;-81
2021/12/18 13:02:34;;;;;;;2.08;1.88;;;5.40;99.90;;;;;;7235909;19;2004401;-80
2021/12/18 13:05:11;;;;;;;1.95;1.77;;;5.40;99.90;;;;;;7293766;19;2004454;-85
2021/12/18 13:07:59;;;;;;;1.42;1.33;;;5.50;99.90;;;;;;7396771;19;20316;-80
2021/12/18 13:10:35;;;;;;;1.40;1.30;;;5.50;99.90;;;;;;7290399;19;2004344;-83
2021/12/18 13:13:20;;;;;;;1.33;1.23;;;5.50;99.90;;;;;;7374330;19;20359;-80
2021/12/18 13:15:55;;;;;;;1.65;1.55;;;5.50;99.90;;;;;;7379812;19;20352;-80
2021/12/18 13:18:33;;;;;;;1.27;1.20;;;5.40;99.90;;;;;;7321174;19;20324;-83
2021/12/18 13:21:23;;;;;;;0.90;0.90;;;5.40;99.90;;;;;;7373447;19;20902;-81
2021/12/18 13:24:13;;;;;;;2.58;1.30;;;5.40;99.90;;;;;;7285942;19;2005679;-83
2021/12/18 13:26:41;;;;;;;1.00;1.00;;;5.50;99.90;;;;;;7373008;19;20348;-80
2021/12/18 13:29:09;;;;;;;1.00;1.00;;;5.50;99.90;;;;;;7385771;19;20332;-88
2021/12/18 13:31:43;;;;;;;0.80;0.80;;;5.40;99.90;;;;;;7391093;19;20380;-84
2021/12/18 13:34:10;;;;;;;1.30;1.20;;;5.40;99.90;;;;;;7372140;19;20875;-82
2021/12/18 13:36:40;;;;;;;1.00;1.00;;;5.40;99.90;;;;;;7392984;19;20365;-84
2021/12/18 13:39:11;;;;;;;1.00;1.00;;;5.50;99.90;;;;;;7396697;19;20333;-87
2021/12/18 13:41:36;;;;;;;0.95;0.95;;;5.50;99.90;;;;;;7394833;19;20323;-81
2021/12/18 13:44:02;;;;;;;1.00;1.00;;;5.50;99.90;;;;;;7395095;19;20329;-82
2021/12/18 13:46:30;;;;;;;1.02;1.02;;;5.60;99.90;;;;;;7397417;19;20377;-85
2021/12/18 13:48:59;;;;;;;1.02;1.02;;;5.50;99.90;;;;;;7390338;19;20324;-82
2021/12/18 13:51:26;;;;;;;1.10;1.10;;;5.50;99.90;;;;;;7395386;19;20867;-81
2021/12/18 13:53:52;;;;;;;0.98;0.98;;;5.50;99.90;;;;;;7393818;19;20328;-83
2021/12/18 13:56:18;;;;;;;0.80;0.80;;;5.50;99.90;;;;;;7239552;19;2004390;-80
2021/12/18 13:58:50;;;;;;;0.98;0.98;;;5.60;99.90;;;;;;7393653;19;20336;-84
2021/12/18 14:01:20;;;;;;;1.10;1.08;;;5.60;99.90;;;;;;7388574;19;20316;-82
2021/12/18 14:03:59;;;;;;;1.08;1.08;;;5.60;99.90;;;;;;7394011;19;20360;-82
2021/12/18 14:06:27;;;;;;;0.87;0.87;;;5.60;99.90;;;;;;7291792;19;2004256;-88
2021/12/18 14:09:09;;;;;;;1.30;1.20;;;5.50;99.90;;;;;;7368239;19;21059;-81
2021/12/18 14:11:38;;;;;;;1.10;1.08;;;5.60;99.90;;;;;;7291827;19;2004380;-84
2021/12/18 14:14:11;;;;;;;0.95;0.95;;;5.60;99.90;;;;;;7369654;19;20403;-83
2021/12/18 14:16:38;;;;;;;1.00;1.00;;;5.70;99.90;;;;;;7392519;19;20380;-81
2021/12/18 14:19:11;;;;;;;1.10;1.10;;;5.60;99.90;;;;;;7389567;19;20316;-80
2021/12/18 14:21:44;;;;;;;1.60;1.30;;;5.70;99.90;;;;;;7371569;19;20348;-84
2021/12/18 14:24:13;;;;;;;1.40;1.15;;;5.60;99.90;;;;;;7293974;19;2004363;-83
2021/12/18 14:26:40;;;;;;;1.00;1.00;;;5.60;99.90;;;;;;7400862;19;20347;-83
2021/12/18 14:29:15;;;;;;;0.98;0.98;;;5.60;99.90;;;;;;7389794;19;20336;-83
2021/12/18 14:31:54;;;;;;;1.02;1.02;;;5.60;99.90;;;;;;7402373;19;20339;-86
2021/12/18 14:34:33;;;;;;;1.10;1.00;;;5.60;99.90;;;;;;7403350;19;20335;-84
2021/12/18 14:37:12;;;;;;;1.30;1.20;;;5.50;99.90;;;;;;7403891;19;20859;-81
2021/12/18 14:39:43;;;;;;;1.35;1.25;;;5.60;99.90;;;;;;7398487;19;20341;-84
2021/12/18 14:42:15;;;;;;;1.10;1.10;;;5.50;99.90;;;;;;7381288;19;20324;-84
2021/12/18 14:44:49;;;;;;;1.08;1.08;;;5.60;99.90;;;;;;7379639;19;20297;-83